createdAt,value
2019-01-20T00:02:50.635Z,7.39
2019-01-20T00:07:59.356Z,7.16
2019-01-20T00:13:07.941Z,7.25
2019-01-20T00:18:16.854Z,7.54
2019-01-20T00:23:25.311Z,7.09
2019-01-20T00:28:33.968Z,7.44
2019-01-20T00:33:42.403Z,6.80
2019-01-20T00:38:51.260Z,7.41
2019-01-20T00:43:59.858Z,7.26
2019-01-20T00:49:08.334Z,7.04
2019-01-20T00:54:17.027Z,6.35
2019-01-20T00:59:25.499Z,6.60
2019-01-20T01:04:34.378Z,7.37
2019-01-20T01:09:42.778Z,6.78
2019-01-20T01:14:51.687Z,6.30
2019-01-20T01:20:00.024Z,7.04
2019-01-20T01:25:09.241Z,7.00
2019-01-20T01:30:17.982Z,6.36
2019-01-20T01:35:26.829Z,6.67
2019-01-20T01:40:35.250Z,6.65
2019-01-20T01:45:44.024Z,6.17
2019-01-20T01:50:52.528Z,6.41
2019-01-20T01:56:01.275Z,6.28
2019-01-20T02:01:09.697Z,6.00
2019-01-20T02:06:18.463Z,6.15
2019-01-20T02:11:26.891Z,6.17
2019-01-20T02:16:35.703Z,6.14
2019-01-20T02:21:44.178Z,6.26
2019-01-20T02:26:52.957Z,6.34
2019-01-20T02:32:01.383Z,6.53
2019-01-20T02:37:10.223Z,6.29
2019-01-20T02:42:18.572Z,6.02
2019-01-20T02:47:27.386Z,6.02
2019-01-20T02:52:35.835Z,5.90
2019-01-20T02:57:44.690Z,5.36
2019-01-20T03:02:53.247Z,5.52
2019-01-20T03:08:02.024Z,6.07
2019-01-20T03:13:10.412Z,6.20
2019-01-20T03:18:19.168Z,6.00
2019-01-20T03:23:27.605Z,5.76
2019-01-20T03:28:36.338Z,5.83
2019-01-20T03:33:44.732Z,5.87
2019-01-20T03:38:53.700Z,6.57
2019-01-20T03:44:02.057Z,6.32
2019-01-20T03:49:11.063Z,6.43
2019-01-20T03:54:19.464Z,5.94
2019-01-20T03:59:28.168Z,6.08
2019-01-20T04:04:36.686Z,5.66
2019-01-20T04:09:45.460Z,6.05
2019-01-20T04:14:53.835Z,6.28
2019-01-20T04:20:02.702Z,6.05
2019-01-20T04:25:11.022Z,6.29
2019-01-20T04:30:19.782Z,6.42
2019-01-20T04:35:28.174Z,6.02
2019-01-20T04:40:36.892Z,6.02
2019-01-20T04:45:45.395Z,6.05
2019-01-20T04:50:54.147Z,6.22
2019-01-20T04:56:02.522Z,6.09
2019-01-20T05:01:11.514Z,6.43
2019-01-20T05:06:19.909Z,5.99
2019-01-20T05:11:28.648Z,5.76
2019-01-20T05:16:37.083Z,6.07
2019-01-20T05:21:45.954Z,6.00
2019-01-20T05:26:54.321Z,5.85
2019-01-20T05:32:03.040Z,6.10
2019-01-20T05:37:11.579Z,6.24
2019-01-20T05:42:20.402Z,5.99
2019-01-20T05:47:28.800Z,5.95
2019-01-20T05:52:37.536Z,6.37
2019-01-20T05:57:46.072Z,6.17
2019-01-20T06:02:54.792Z,6.34
2019-01-20T06:08:03.285Z,6.06
2019-01-20T06:13:12.109Z,6.15
2019-01-20T06:18:20.628Z,6.12
2019-01-20T06:23:29.333Z,6.03
2019-01-20T06:28:37.744Z,5.79
2019-01-20T06:33:44.770Z,6.19
2019-01-20T06:38:53.258Z,6.10
2019-01-20T06:44:01.677Z,6.26
2019-01-20T06:49:10.195Z,6.41
2019-01-20T06:54:18.716Z,5.86
2019-01-20T06:59:27.152Z,6.08
2019-01-20T07:04:35.515Z,5.94
2019-01-20T07:09:43.881Z,6.41
2019-01-20T07:14:52.513Z,6.02
2019-01-20T07:20:00.941Z,6.47
2019-01-20T07:25:09.356Z,6.56
2019-01-20T07:30:17.722Z,7.14
2019-01-20T07:35:26.291Z,6.99
2019-01-20T07:40:34.983Z,7.02
2019-01-20T07:45:43.539Z,6.97
2019-01-20T07:50:51.893Z,6.73
2019-01-20T07:56:00.769Z,6.76
2019-01-20T08:01:09.150Z,7.33
2019-01-20T08:06:17.810Z,6.61
2019-01-20T08:11:26.237Z,6.64
2019-01-20T08:16:34.656Z,6.68
2019-01-20T08:21:43.124Z,7.42
2019-01-20T08:26:51.622Z,7.11
2019-01-20T08:31:59.943Z,7.13
2019-01-20T08:37:08.535Z,7.53
2019-01-20T08:42:16.897Z,7.15
2019-01-20T08:47:25.519Z,7.36
2019-01-20T08:52:33.871Z,7.47
2019-01-20T08:57:42.411Z,7.46
2019-01-20T09:02:50.828Z,7.80
2019-01-20T09:07:59.218Z,8.03
2019-01-20T09:13:07.740Z,8.27
2019-01-20T09:18:16.141Z,8.49
2019-01-20T09:23:24.625Z,8.19
2019-01-20T09:28:33.130Z,8.82
2019-01-20T09:33:41.526Z,9.21
2019-01-20T09:38:49.922Z,9.10
2019-01-20T09:43:58.579Z,9.21
2019-01-20T09:49:13.466Z,9.11
2019-01-20T09:54:11.883Z,9.06
2019-01-20T09:59:20.277Z,9.94
2019-01-20T10:04:29.112Z,9.97
2019-01-20T10:09:37.590Z,9.44
2019-01-20T10:14:46.184Z,9.29
2019-01-20T10:19:54.667Z,10.03
2019-01-20T10:25:03.237Z,10.08
2019-01-20T10:30:11.657Z,9.74
2019-01-20T10:35:20.087Z,10.62
2019-01-20T10:40:28.456Z,10.27
2019-01-20T10:45:37.315Z,10.23
2019-01-20T10:50:45.717Z,10.46
2019-01-20T10:55:54.374Z,10.78
2019-01-20T11:01:02.723Z,10.86
2019-01-20T11:06:11.237Z,11.74
2019-01-20T11:11:19.616Z,11.56
2019-01-20T11:16:28.176Z,12.01
2019-01-20T11:21:36.786Z,11.74
2019-01-20T11:26:45.314Z,11.94
2019-01-20T11:31:53.797Z,11.55
2019-01-20T11:37:02.344Z,12.50
2019-01-20T11:42:10.755Z,11.88
2019-01-20T11:47:19.346Z,12.05
2019-01-20T11:52:27.795Z,11.82
2019-01-20T11:57:36.293Z,12.35
2019-01-20T12:02:44.718Z,13.04
2019-01-20T12:07:54.197Z,12.22
2019-01-20T12:13:01.266Z,12.05
2019-01-20T12:18:09.692Z,12.48
2019-01-20T12:23:18.135Z,12.50
2019-01-20T12:28:26.566Z,12.37
2019-01-20T12:33:34.980Z,12.83
2019-01-20T12:38:43.657Z,12.53
2019-01-20T12:43:53.238Z,11.98
2019-01-20T12:49:01.605Z,12.46
2019-01-20T12:54:10.300Z,12.43
2019-01-20T12:59:18.782Z,12.28
2019-01-20T13:04:27.304Z,11.83
2019-01-20T13:09:35.818Z,11.24
2019-01-20T13:14:44.312Z,12.33
2019-01-20T13:19:52.734Z,12.58
2019-01-20T13:25:01.268Z,11.66
2019-01-20T13:30:09.755Z,11.78
2019-01-20T13:35:18.321Z,12.37
2019-01-20T13:40:26.976Z,12.62
2019-01-20T13:45:35.587Z,12.63
2019-01-20T13:50:44.040Z,12.59
2019-01-20T13:55:52.539Z,11.37
2019-01-20T14:00:59.711Z,12.81
2019-01-20T14:06:08.166Z,12.66
2019-01-20T14:11:16.605Z,12.82
2019-01-20T14:16:30.007Z,12.59
2019-01-20T14:21:28.481Z,12.69
2019-01-20T14:26:35.578Z,11.96
2019-01-20T14:31:44.180Z,12.71
2019-01-20T14:38:00.149Z,14.03
2019-01-20T14:43:08.694Z,13.32
2019-01-20T14:48:17.257Z,12.35
2019-01-20T14:53:25.817Z,12.43
2019-01-20T14:58:34.299Z,13.50
2019-01-20T15:03:42.690Z,12.81
2019-01-20T15:08:51.226Z,12.51
2019-01-20T15:13:59.661Z,12.28
2019-01-20T15:19:08.070Z,12.89
2019-01-20T15:24:16.810Z,12.19
2019-01-20T15:29:25.274Z,12.52
2019-01-20T15:34:33.701Z,12.59
2019-01-20T15:39:42.445Z,13.04
2019-01-20T15:44:50.887Z,12.90
2019-01-20T15:49:59.289Z,13.72
2019-01-20T15:55:07.826Z,13.62
2019-01-20T16:00:16.423Z,14.74
2019-01-20T16:05:24.805Z,13.89
2019-01-20T16:10:33.182Z,13.81
2019-01-20T16:15:41.693Z,13.61
2019-01-20T16:20:50.069Z,13.64
2019-01-20T16:25:58.491Z,13.78
2019-01-20T16:31:07.077Z,12.82
2019-01-20T16:36:15.518Z,13.18
2019-01-20T16:41:23.966Z,13.30
2019-01-20T16:46:32.337Z,13.69
2019-01-20T16:51:41.063Z,13.19
2019-01-20T16:56:49.558Z,13.82
2019-01-20T17:02:03.843Z,14.28
2019-01-20T17:07:02.342Z,14.46
2019-01-20T17:12:10.949Z,13.29
2019-01-20T17:17:19.406Z,13.93
2019-01-20T17:22:27.962Z,13.95
2019-01-20T17:27:36.885Z,14.61
2019-01-20T17:32:45.288Z,14.69
2019-01-20T17:37:54.006Z,14.69
2019-01-20T17:43:02.905Z,14.48
2019-01-20T17:48:11.398Z,14.97
2019-01-20T17:53:19.873Z,15.49
2019-01-20T17:58:28.364Z,14.47
2019-01-20T18:03:37.313Z,15.31
2019-01-20T18:08:46.158Z,15.77
2019-01-20T18:13:54.633Z,15.47
2019-01-20T18:19:03.221Z,15.24
2019-01-20T18:24:12.034Z,15.46
2019-01-20T18:29:22.343Z,15.15
2019-01-20T18:34:20.923Z,15.44
2019-01-20T18:39:30.578Z,14.94
2019-01-20T18:44:39.255Z,14.39
2019-01-20T18:49:47.277Z,14.58
2019-01-20T18:54:55.661Z,14.91
2019-01-20T19:00:04.456Z,15.85
2019-01-20T19:05:14.420Z,15.19
2019-01-20T19:10:23.145Z,15.17
2019-01-20T19:15:35.212Z,14.82
2019-01-20T19:20:33.630Z,15.32
2019-01-20T19:25:42.085Z,16.13
2019-01-20T19:30:52.272Z,15.69
2019-01-20T19:35:50.722Z,16.69
2019-01-20T19:40:59.205Z,16.06
2019-01-20T19:46:07.861Z,16.03
2019-01-20T19:51:23.826Z,15.37
2019-01-20T19:56:22.309Z,15.16
2019-01-20T20:01:31.158Z,14.90
2019-01-20T20:06:39.375Z,15.74
2019-01-20T20:11:47.771Z,15.35
2019-01-20T20:16:56.215Z,14.17
2019-01-20T20:22:04.694Z,14.84
2019-01-20T20:27:13.648Z,15.70
2019-01-20T20:32:22.089Z,15.00
2019-01-20T20:38:18.569Z,17.62
2019-01-20T20:43:27.096Z,14.96
2019-01-20T20:48:35.622Z,14.82
2019-01-20T20:53:46.542Z,14.36
2019-01-20T20:58:44.888Z,13.92
2019-01-20T21:03:53.406Z,14.37
2019-01-20T21:09:01.851Z,15.20
2019-01-20T21:14:10.328Z,14.81
2019-01-20T21:19:18.835Z,15.23
2019-01-20T21:24:28.193Z,15.50
2019-01-20T21:29:35.234Z,15.26
2019-01-20T21:34:43.587Z,15.06
2019-01-20T21:39:52.073Z,16.00
2019-01-20T21:45:00.550Z,15.99
2019-01-20T21:50:09.116Z,15.73
2019-01-20T21:55:17.566Z,14.67
2019-01-20T22:00:25.995Z,14.47
2019-01-20T22:05:34.393Z,14.42
2019-01-20T22:10:42.813Z,13.81
2019-01-20T22:15:51.329Z,13.71
2019-01-20T22:20:59.764Z,14.42
2019-01-20T22:26:08.146Z,13.98
2019-01-20T22:31:16.534Z,13.55
2019-01-20T22:36:25.392Z,14.84
2019-01-20T22:41:33.819Z,15.24
2019-01-20T22:46:42.402Z,14.66
2019-01-20T22:51:50.783Z,14.90
2019-01-20T22:56:59.220Z,14.89
2019-01-20T23:02:07.580Z,14.26
2019-01-20T23:07:16.150Z,14.13
2019-01-20T23:12:24.495Z,14.84
2019-01-20T23:17:32.880Z,14.75
2019-01-20T23:22:41.309Z,14.78
2019-01-20T23:27:49.828Z,15.11
2019-01-20T23:32:58.480Z,14.65
2019-01-20T23:38:06.889Z,14.29
2019-01-20T23:43:15.216Z,15.45
2019-01-20T23:48:23.843Z,15.88
2019-01-20T23:53:32.351Z,15.42
2019-01-20T23:58:40.792Z,15.27
